Time;durP1;ratioP1;P1;durP2;ratioP2;P2;SDS_P1;SDS_P2;PMS_P1;PMS_P2;Temp;Humidity;BMP_temperature;BMP_pressure;BME280_temperature;BME280_humidity;BME280_pressure;Samples;Min_cycle;Max_cycle;Signal;HPM_P1;HPM_P2
2022/11/21 00:00:18;;;;;;;32.05;7.68;;;8.50;99.90;;;;;;5094956;28;20040;-70
2022/11/21 00:02:43;;;;;;;30.33;7.32;;;8.60;99.90;;;;;;5094654;28;20539;-71
2022/11/21 00:05:09;;;;;;;23.05;7.40;;;8.60;99.90;;;;;;5080290;28;20120;-70
2022/11/21 00:07:34;;;;;;;22.88;6.80;;;8.50;99.90;;;;;;5094194;28;20426;-70
2022/11/21 00:10:00;;;;;;;28.60;6.50;;;8.50;99.90;;;;;;5096381;28;20602;-71
2022/11/21 00:12:26;;;;;;;33.08;7.35;;;8.60;99.90;;;;;;5078546;28;20035;-70
2022/11/21 00:14:52;;;;;;;25.05;5.95;;;8.50;99.90;;;;;;5098056;28;20015;-70
2022/11/21 00:17:17;;;;;;;24.95;6.45;;;8.50;99.90;;;;;;5094310;28;20474;-71
2022/11/21 00:19:43;;;;;;;21.15;6.25;;;8.50;99.90;;;;;;5094256;28;20039;-71
2022/11/21 00:22:09;;;;;;;31.80;6.75;;;8.50;99.90;;;;;;5096535;28;20075;-71
2022/11/21 00:24:35;;;;;;;27.25;6.10;;;8.50;99.90;;;;;;5094900;28;20102;-71
2022/11/21 00:27:01;;;;;;;28.13;6.90;;;8.50;99.90;;;;;;5096112;28;20464;-70
2022/11/21 00:29:27;;;;;;;25.08;6.15;;;8.50;99.90;;;;;;5098040;28;20028;-70
2022/11/21 00:31:53;;;;;;;24.20;5.95;;;8.50;99.90;;;;;;5094012;28;20483;-70
2022/11/21 00:34:19;;;;;;;26.85;5.65;;;8.50;99.90;;;;;;5093570;28;20573;-71
2022/11/21 00:36:45;;;;;;;22.52;5.43;;;8.50;99.90;;;;;;5096111;28;20054;-70
2022/11/21 00:39:10;;;;;;;21.33;5.95;;;8.50;99.90;;;;;;5094743;28;20048;-71
2022/11/21 00:41:36;;;;;;;30.05;5.68;;;8.40;99.90;;;;;;5096938;28;20032;-71
2022/11/21 00:44:01;;;;;;;21.75;5.68;;;8.40;99.90;;;;;;5095927;28;20028;-70
2022/11/21 00:46:27;;;;;;;18.95;4.80;;;8.40;99.90;;;;;;5094245;28;20063;-71
2022/11/21 00:48:53;;;;;;;21.35;4.70;;;8.40;99.90;;;;;;5095930;28;20024;-70
2022/11/21 00:51:18;;;;;;;24.80;5.47;;;8.30;99.90;;;;;;5102509;28;20488;-70
2022/11/21 00:53:44;;;;;;;25.05;5.70;;;8.40;99.90;;;;;;5104656;28;20023;-70
2022/11/21 00:56:09;;;;;;;25.10;5.93;;;8.40;99.90;;;;;;5098605;28;20516;-70
2022/11/21 00:58:35;;;;;;;17.75;5.28;;;8.40;99.90;;;;;;5104377;28;20059;-70
2022/11/21 01:01:07;;;;;;;22.65;5.80;;;8.40;99.90;;;;;;5108576;28;20396;-70
2022/11/21 01:03:34;;;;;;;28.08;6.95;;;8.50;99.90;;;;;;5108306;28;20020;-70
2022/11/21 01:06:05;;;;;;;23.85;6.45;;;8.50;99.90;;;;;;5103565;28;20519;-70
2022/11/21 01:08:31;;;;;;;20.55;6.30;;;8.40;99.90;;;;;;5101367;28;20020;-70
2022/11/21 01:11:00;;;;;;;27.90;6.35;;;8.50;99.90;;;;;;5103368;28;20029;-70
2022/11/21 01:13:26;;;;;;;25.13;6.15;;;8.50;99.90;;;;;;5113616;28;20023;-70
2022/11/21 01:15:51;;;;;;;20.63;5.78;;;8.50;99.90;;;;;;5109615;28;20034;-69
2022/11/21 01:18:17;;;;;;;18.90;5.25;;;8.50;99.90;;;;;;5107374;28;20032;-70
2022/11/21 01:20:42;;;;;;;23.23;6.50;;;8.50;99.90;;;;;;5107626;28;20082;-69
2022/11/21 01:23:08;;;;;;;19.10;6.05;;;8.50;99.90;;;;;;5110168;28;20084;-69
2022/11/21 01:25:34;;;;;;;20.92;6.18;;;8.40;99.90;;;;;;5103851;28;20070;-70
2022/11/21 01:28:05;;;;;;;24.35;5.95;;;8.50;99.90;;;;;;5110465;28;20027;-70
2022/11/21 01:30:31;;;;;;;22.88;6.47;;;8.50;99.90;;;;;;5112264;28;20538;-70
2022/11/21 01:32:56;;;;;;;21.63;6.63;;;8.50;99.90;;;;;;5112036;28;20024;-72
2022/11/21 01:35:24;;;;;;;24.30;7.32;;;8.50;99.90;;;;;;5108131;28;20031;-70
2022/11/21 01:37:50;;;;;;;25.05;5.95;;;8.50;99.90;;;;;;5104494;28;20016;-70
2022/11/21 01:40:16;;;;;;;18.98;5.50;;;8.50;99.90;;;;;;5110451;28;20042;-69
2022/11/21 01:43:01;;;;;;;21.00;6.10;;;8.50;99.90;;;;;;5113050;28;20027;-70
2022/11/21 01:45:55;;;;;;;18.17;5.93;;;8.50;99.90;;;;;;5108789;28;20032;-69
2022/11/21 01:48:30;;;;;;;26.48;6.07;;;8.60;99.90;;;;;;5101747;28;20497;-71
2022/11/21 01:50:58;;;;;;;29.25;7.15;;;8.50;99.90;;;;;;5110863;28;20032;-70
2022/11/21 01:53:24;;;;;;;19.52;5.50;;;8.50;99.90;;;;;;5111723;28;20451;-70
2022/11/21 01:55:50;;;;;;;23.85;7.40;;;8.50;99.90;;;;;;5109913;28;20118;-70
2022/11/21 01:58:16;;;;;;;22.73;6.15;;;8.40;99.90;;;;;;5108186;28;20023;-71
2022/11/21 02:00:45;;;;;;;26.95;6.63;;;8.50;99.90;;;;;;5110230;28;20363;-70
2022/11/21 02:03:14;;;;;;;23.08;5.70;;;8.50;99.90;;;;;;5111672;28;20073;-70
2022/11/21 02:05:40;;;;;;;22.63;5.85;;;8.40;99.90;;;;;;5090860;28;20023;-70
2022/11/21 02:08:12;;;;;;;21.80;5.05;;;8.40;99.90;;;;;;5104211;28;20472;-70
2022/11/21 02:10:44;;;;;;;23.17;4.30;;;8.40;99.90;;;;;;5084717;28;20438;-70
2022/11/21 02:13:11;;;;;;;22.45;4.90;;;8.50;99.90;;;;;;5107560;28;20020;-70
2022/11/21 02:15:37;;;;;;;24.77;4.35;;;8.50;99.90;;;;;;5108702;28;20066;-70
2022/11/21 02:18:07;;;;;;;15.60;4.32;;;8.60;99.90;;;;;;5107829;28;20051;-70
2022/11/21 02:20:35;;;;;;;14.77;3.38;;;8.60;99.90;;;;;;5100967;28;20071;-70
2022/11/21 02:23:19;;;;;;;10.30;3.70;;;8.60;99.90;;;;;;5109800;28;20383;-70
2022/11/21 02:25:44;;;;;;;19.80;4.53;;;8.60;99.90;;;;;;5108078;28;20019;-70
2022/11/21 02:28:15;;;;;;;17.67;4.13;;;8.70;99.90;;;;;;5104216;28;20026;-70
2022/11/21 02:30:42;;;;;;;13.98;3.55;;;8.70;99.90;;;;;;5109315;28;20054;-70
2022/11/21 02:33:08;;;;;;;18.52;4.18;;;8.70;99.90;;;;;;5111069;28;20059;-70
2022/11/21 02:35:34;;;;;;;21.38;4.70;;;8.70;99.90;;;;;;5102850;28;20027;-70
2022/11/21 02:38:16;;;;;;;16.33;4.00;;;8.70;99.90;;;;;;5109593;28;20032;-70
2022/11/21 02:40:49;;;;;;;17.98;4.10;;;8.70;99.90;;;;;;5109059;28;20038;-70
2022/11/21 02:43:29;;;;;;;16.98;3.95;;;8.70;99.90;;;;;;5111036;28;20016;-70
2022/11/21 02:45:55;;;;;;;16.55;3.90;;;8.60;99.90;;;;;;5094702;28;20391;-70
2022/11/21 02:48:20;;;;;;;22.38;4.28;;;8.60;99.90;;;;;;5109936;28;20027;-70
2022/11/21 02:50:47;;;;;;;17.33;3.92;;;8.60;99.90;;;;;;5106072;28;20031;-70
2022/11/21 02:53:15;;;;;;;16.50;4.45;;;8.60;99.90;;;;;;5109731;28;20081;-70
2022/11/21 02:55:41;;;;;;;12.02;3.70;;;8.60;99.90;;;;;;5100450;28;20038;-70
2022/11/21 02:58:07;;;;;;;15.63;4.18;;;8.60;99.90;;;;;;5107582;28;20093;-70
2022/11/21 03:00:35;;;;;;;14.55;3.80;;;8.60;99.90;;;;;;5088473;28;20451;-70
2022/11/21 03:03:00;;;;;;;17.70;3.95;;;8.50;99.90;;;;;;5106072;28;20023;-70
2022/11/21 03:05:26;;;;;;;14.95;4.07;;;8.50;99.90;;;;;;5101098;28;20031;-71
2022/11/21 03:07:52;;;;;;;19.38;4.03;;;8.50;99.90;;;;;;5100137;28;20479;-70
2022/11/21 03:10:18;;;;;;;14.75;4.45;;;8.50;99.90;;;;;;5100863;28;20028;-70
2022/11/21 03:12:43;;;;;;;13.80;4.00;;;8.50;99.90;;;;;;5091108;28;20020;-70
2022/11/21 03:15:11;;;;;;;13.00;3.97;;;8.50;99.90;;;;;;5110572;28;20016;-70
2022/11/21 03:17:37;;;;;;;17.10;3.72;;;8.50;99.90;;;;;;5104567;28;20023;-70
2022/11/21 03:20:04;;;;;;;15.40;4.60;;;8.40;99.90;;;;;;5107717;28;20437;-70
2022/11/21 03:22:30;;;;;;;15.18;4.05;;;8.40;99.90;;;;;;5110384;28;20046;-70
2022/11/21 03:24:55;;;;;;;12.38;4.25;;;8.40;99.90;;;;;;5105796;28;20468;-70
2022/11/21 03:27:21;;;;;;;20.33;4.60;;;8.30;99.90;;;;;;5100239;28;20356;-70
2022/11/21 03:29:47;;;;;;;16.55;4.70;;;8.30;99.90;;;;;;5108216;28;20092;-70
2022/11/21 03:32:13;;;;;;;16.73;4.80;;;8.20;99.90;;;;;;5104005;28;20075;-70
2022/11/21 03:34:38;;;;;;;14.85;4.07;;;8.30;99.90;;;;;;5106421;28;20028;-70
2022/11/21 03:37:04;;;;;;;14.45;4.45;;;8.30;99.90;;;;;;5103258;28;20373;-70
2022/11/21 03:39:29;;;;;;;15.02;4.40;;;8.30;99.90;;;;;;5107674;28;20065;-71
2022/11/21 03:41:55;;;;;;;21.73;4.07;;;8.20;99.90;;;;;;5109549;28;20015;-70
2022/11/21 03:44:21;;;;;;;14.43;4.03;;;8.10;99.90;;;;;;5110778;28;20035;-70
2022/11/21 03:46:47;;;;;;;12.52;4.93;;;8.10;99.90;;;;;;5103999;28;20074;-70
2022/11/21 03:49:14;;;;;;;15.55;4.43;;;8.10;99.90;;;;;;5099127;28;20040;-70
2022/11/21 03:51:40;;;;;;;15.30;4.18;;;8.10;99.90;;;;;;5109680;28;20039;-70
2022/11/21 03:54:05;;;;;;;17.10;4.78;;;8.10;99.90;;;;;;5090325;28;20028;-70
2022/11/21 03:56:32;;;;;;;12.13;4.82;;;8.10;99.90;;;;;;5102606;28;20097;-70
2022/11/21 03:58:57;;;;;;;16.48;4.60;;;8.10;99.90;;;;;;5107172;28;20038;-71
2022/11/21 04:01:24;;;;;;;14.70;4.75;;;8.10;99.90;;;;;;5088925;28;20035;-70
2022/11/21 04:03:50;;;;;;;15.77;5.20;;;8.10;99.90;;;;;;5105885;28;20047;-70
2022/11/21 04:06:17;;;;;;;18.42;5.25;;;8.10;99.90;;;;;;5101776;28;20529;-70
2022/11/21 04:08:43;;;;;;;13.65;4.75;;;8.00;99.90;;;;;;5103040;28;20032;-70
2022/11/21 04:11:09;;;;;;;11.80;5.13;;;8.10;99.90;;;;;;5108348;28;20027;-70
2022/11/21 04:13:35;;;;;;;14.02;5.22;;;8.10;99.90;;;;;;5108970;28;20391;-70
2022/11/21 04:16:01;;;;;;;11.68;5.22;;;8.10;99.90;;;;;;5104579;28;20028;-70
2022/11/21 04:18:26;;;;;;;15.95;5.40;;;8.10;99.90;;;;;;5086760;28;20038;-70
2022/11/21 04:21:00;;;;;;;15.35;5.93;;;8.20;99.90;;;;;;5101766;28;20445;-70
2022/11/21 04:23:26;;;;;;;15.70;6.03;;;8.20;99.90;;;;;;5102356;28;20027;-70
2022/11/21 04:25:51;;;;;;;13.93;5.43;;;8.10;99.90;;;;;;5097371;28;20028;-70
2022/11/21 04:28:17;;;;;;;15.18;6.50;;;8.10;99.90;;;;;;5106199;28;20042;-69
2022/11/21 04:30:43;;;;;;;15.32;7.32;;;8.10;99.90;;;;;;5109251;28;20115;-69
2022/11/21 04:33:10;;;;;;;24.95;8.45;;;8.00;99.90;;;;;;5107598;28;20068;-70
2022/11/21 04:35:36;;;;;;;18.30;8.38;;;8.00;99.90;;;;;;5099044;28;20034;-69
2022/11/21 04:38:01;;;;;;;24.85;9.32;;;8.10;99.90;;;;;;5099318;28;20020;-70
2022/11/21 04:40:27;;;;;;;21.75;9.10;;;8.10;99.90;;;;;;5108223;28;20032;-69
2022/11/21 04:42:52;;;;;;;26.55;9.18;;;8.00;99.90;;;;;;5102480;28;20042;-70
2022/11/21 04:45:18;;;;;;;20.25;9.93;;;8.10;99.90;;;;;;5108701;28;20031;-69
2022/11/21 04:47:45;;;;;;;26.70;10.55;;;8.10;99.90;;;;;;5105403;28;20024;-69
2022/11/21 04:50:13;;;;;;;24.50;9.75;;;8.10;99.90;;;;;;5106147;28;20036;-69
2022/11/21 04:52:39;;;;;;;23.02;10.50;;;8.20;99.90;;;;;;5114111;28;20020;-69
2022/11/21 04:55:06;;;;;;;35.28;11.50;;;8.20;99.90;;;;;;5108315;28;20055;-69
2022/11/21 04:57:32;;;;;;;22.30;9.95;;;8.20;99.90;;;;;;5104469;28;20228;-69
2022/11/21 04:59:57;;;;;;;22.77;11.23;;;8.20;99.90;;;;;;5110264;28;20490;-69
2022/11/21 05:02:23;;;;;;;18.92;11.20;;;8.20;99.90;;;;;;5113516;28;20102;-69
2022/11/21 05:04:49;;;;;;;25.33;11.23;;;8.20;99.90;;;;;;5109756;28;20383;-69
2022/11/21 05:07:15;;;;;;;23.27;11.20;;;8.20;99.90;;;;;;5102149;28;20016;-69
2022/11/21 05:09:42;;;;;;;22.77;10.57;;;8.20;99.90;;;;;;5104995;28;20080;-69
2022/11/21 05:14:54;;;;;;;21.98;10.85;;;8.30;99.90;;;;;;5109073;28;20046;-70
2022/11/21 05:17:20;;;;;;;23.27;11.30;;;8.30;99.90;;;;;;5105609;28;20110;-70
2022/11/21 05:19:45;;;;;;;26.35;11.60;;;8.30;99.90;;;;;;5108032;28;20123;-69
2022/11/21 05:22:11;;;;;;;21.70;12.02;;;8.40;99.90;;;;;;5108865;28;20031;-70
2022/11/21 05:24:37;;;;;;;25.88;13.05;;;8.30;99.90;;;;;;5111717;28;20028;-70
2022/11/21 05:27:03;;;;;;;26.10;11.98;;;8.30;99.90;;;;;;5090244;28;20039;-69
2022/11/21 05:29:28;;;;;;;20.63;11.70;;;8.30;99.90;;;;;;5114053;28;20034;-69
2022/11/21 05:31:54;;;;;;;20.30;13.23;;;8.30;99.90;;;;;;5091425;28;20480;-69
2022/11/21 05:34:20;;;;;;;22.67;12.43;;;8.30;99.90;;;;;;5103923;28;20107;-69
2022/11/21 05:36:46;;;;;;;23.88;13.02;;;8.30;99.90;;;;;;5109143;28;20019;-70
2022/11/21 05:39:11;;;;;;;22.67;13.40;;;8.20;99.90;;;;;;5108762;28;20032;-69
2022/11/21 05:41:37;;;;;;;26.67;13.63;;;8.30;99.90;;;;;;5108100;28;20028;-70
2022/11/21 05:44:02;;;;;;;22.92;13.30;;;8.30;99.90;;;;;;5108859;28;20287;-69
2022/11/21 05:46:28;;;;;;;25.98;13.57;;;8.30;99.90;;;;;;5106392;28;20036;-70
2022/11/21 05:48:54;;;;;;;22.48;13.45;;;8.30;99.90;;;;;;5105943;28;20464;-69
2022/11/21 05:51:20;;;;;;;31.90;15.13;;;8.30;99.90;;;;;;5108029;28;20059;-69
2022/11/21 05:53:47;;;;;;;31.98;15.95;;;8.20;99.90;;;;;;5112004;28;20024;-69
2022/11/21 05:56:17;;;;;;;25.70;14.63;;;8.30;99.90;;;;;;5102429;28;20528;-69
2022/11/21 05:58:43;;;;;;;24.23;14.05;;;8.20;99.90;;;;;;5101883;28;20036;-69
2022/11/21 06:01:11;;;;;;;27.20;15.20;;;8.30;99.90;;;;;;5108838;28;20486;-69
2022/11/21 06:03:38;;;;;;;23.20;14.52;;;8.30;99.90;;;;;;5111126;28;20051;-70
2022/11/21 06:06:10;;;;;;;28.75;14.75;;;8.30;99.90;;;;;;5102826;28;20023;-70
2022/11/21 06:08:37;;;;;;;24.77;13.55;;;8.40;99.90;;;;;;5100296;28;20248;-69
2022/11/21 06:11:05;;;;;;;25.15;13.77;;;8.30;99.90;;;;;;5111187;28;20028;-70
2022/11/21 06:13:32;;;;;;;29.38;15.57;;;8.30;99.90;;;;;;5109565;28;20092;-69
2022/11/21 06:15:59;;;;;;;25.40;14.82;;;8.30;99.90;;;;;;5107164;28;20613;-69
2022/11/21 06:18:25;;;;;;;29.30;15.95;;;8.30;99.90;;;;;;5103796;28;20058;-70
2022/11/21 06:20:51;;;;;;;30.15;16.38;;;8.20;99.90;;;;;;5107877;28;20032;-69
2022/11/21 06:23:17;;;;;;;24.50;15.60;;;8.30;99.90;;;;;;5111694;28;20022;-69
2022/11/21 06:25:43;;;;;;;31.83;16.05;;;8.30;99.90;;;;;;5104344;28;20856;-69
2022/11/21 06:28:09;;;;;;;28.52;14.95;;;8.30;99.90;;;;;;5106664;28;20111;-69
2022/11/21 06:30:35;;;;;;;29.00;14.32;;;8.30;99.90;;;;;;5110009;28;20020;-69
2022/11/21 06:33:05;;;;;;;29.30;14.93;;;8.30;99.90;;;;;;5105976;28;20028;-69
2022/11/21 06:35:31;;;;;;;26.15;14.70;;;8.20;99.90;;;;;;5105450;28;20104;-70
2022/11/21 06:37:57;;;;;;;37.72;16.15;;;8.20;99.90;;;;;;5106640;28;20480;-70
2022/11/21 06:40:23;;;;;;;25.33;14.57;;;8.20;99.90;;;;;;5108680;28;20071;-70
2022/11/21 06:42:49;;;;;;;29.88;15.02;;;8.20;99.90;;;;;;5109323;28;20026;-70
2022/11/21 06:45:14;;;;;;;30.63;15.13;;;8.20;99.90;;;;;;5104372;28;20110;-70
2022/11/21 06:47:40;;;;;;;35.15;16.33;;;8.30;99.90;;;;;;5108153;28;20042;-70
2022/11/21 06:50:06;;;;;;;28.65;14.85;;;8.20;99.90;;;;;;5110274;28;20136;-70
2022/11/21 06:52:33;;;;;;;41.38;17.55;;;8.20;99.90;;;;;;5109088;28;20034;-71
2022/11/21 06:54:58;;;;;;;28.55;15.02;;;8.20;99.90;;;;;;5103514;28;20484;-70
2022/11/21 06:57:24;;;;;;;39.42;17.77;;;8.30;99.90;;;;;;5108537;28;20031;-70
2022/11/21 06:59:49;;;;;;;35.60;16.40;;;8.20;99.90;;;;;;5102153;28;20123;-70
2022/11/21 07:02:15;;;;;;;31.08;16.25;;;8.20;99.90;;;;;;5108508;28;20568;-70
2022/11/21 07:04:41;;;;;;;40.78;17.65;;;8.20;99.90;;;;;;5102069;28;20028;-70
2022/11/21 07:07:06;;;;;;;41.25;17.63;;;8.20;99.90;;;;;;5103512;28;20531;-71
2022/11/21 07:09:34;;;;;;;32.38;16.55;;;8.20;99.90;;;;;;5109356;28;20111;-70
2022/11/21 07:13:20;;;;;;;35.17;16.42;;;8.20;99.90;;;;;;5110070;28;20019;-71
2022/11/21 07:14:46;;;;;;;33.55;15.38;;;8.20;99.90;;;;;;5104204;28;20553;-70
2022/11/21 07:17:13;;;;;;;32.60;14.55;;;8.10;99.90;;;;;;5086027;28;20122;-71
2022/11/21 07:19:39;;;;;;;32.33;15.82;;;8.20;99.90;;;;;;5104987;28;20380;-70
2022/11/21 07:22:06;;;;;;;35.78;17.42;;;8.30;99.90;;;;;;5109284;28;20019;-70
2022/11/21 07:24:31;;;;;;;36.03;15.23;;;8.20;99.90;;;;;;5108729;28;20019;-71
2022/11/21 07:26:57;;;;;;;32.65;16.42;;;8.20;99.90;;;;;;5087453;28;20016;-71
2022/11/21 07:29:24;;;;;;;32.90;16.02;;;8.20;99.90;;;;;;5101110;28;20039;-70
2022/11/21 07:31:49;;;;;;;33.60;15.85;;;8.20;99.90;;;;;;5110707;28;20440;-71
2022/11/21 07:34:15;;;;;;;31.45;14.82;;;8.30;99.90;;;;;;5110045;28;20103;-70
2022/11/21 07:36:40;;;;;;;39.78;16.23;;;8.30;99.90;;;;;;5085081;28;20429;-70
2022/11/21 07:39:06;;;;;;;32.40;15.30;;;8.30;99.90;;;;;;5111165;28;20023;-71
2022/11/21 07:41:32;;;;;;;30.85;13.15;;;8.30;99.90;;;;;;5093331;28;20036;-70
2022/11/21 07:43:57;;;;;;;32.58;13.80;;;8.30;99.90;;;;;;5101199;28;20037;-70
2022/11/21 07:46:23;;;;;;;33.63;14.18;;;8.30;99.90;;;;;;5098946;28;20490;-70
2022/11/21 07:48:49;;;;;;;26.95;12.75;;;8.30;99.90;;;;;;5104897;28;20020;-70
2022/11/21 07:51:15;;;;;;;27.90;11.48;;;8.20;99.90;;;;;;5105086;28;20415;-74
2022/11/21 07:53:40;;;;;;;25.27;12.38;;;8.20;99.90;;;;;;5106151;28;20023;-70
2022/11/21 07:56:08;;;;;;;29.38;12.00;;;8.30;99.90;;;;;;5101428;28;20352;-70
2022/11/21 07:58:34;;;;;;;22.27;11.05;;;8.40;99.90;;;;;;5101261;28;20049;-70
2022/11/21 08:01:04;;;;;;;28.67;13.65;;;8.40;99.90;;;;;;5108025;28;20043;-70
2022/11/21 08:03:30;;;;;;;30.95;13.02;;;8.40;99.90;;;;;;5103564;28;20099;-70
2022/11/21 08:05:59;;;;;;;27.80;13.18;;;8.40;99.90;;;;;;5105940;28;20027;-70
2022/11/21 08:08:25;;;;;;;33.08;14.15;;;8.40;99.90;;;;;;5103810;28;20023;-70
2022/11/21 08:10:50;;;;;;;25.73;12.35;;;8.40;99.90;;;;;;5100891;28;20080;-71
2022/11/21 08:13:16;;;;;;;29.88;12.18;;;8.40;99.90;;;;;;5104874;28;20028;-71
2022/11/21 08:15:41;;;;;;;25.08;11.70;;;8.40;99.90;;;;;;5102485;28;20350;-73
2022/11/21 08:18:19;;;;;;;30.80;11.38;;;8.40;99.90;;;;;;5099707;28;20043;-70
2022/11/21 08:20:45;;;;;;;30.23;11.88;;;8.50;99.90;;;;;;5098440;28;20040;-71
2022/11/21 08:23:11;;;;;;;20.60;11.27;;;8.40;99.90;;;;;;5104371;28;20379;-70
2022/11/21 08:25:38;;;;;;;24.95;11.63;;;8.40;99.90;;;;;;5089028;28;20034;-70
2022/11/21 08:28:04;;;;;;;28.08;11.45;;;8.40;99.90;;;;;;5105946;28;20396;-71
2022/11/21 08:30:30;;;;;;;25.90;9.63;;;8.40;99.90;;;;;;5086388;28;20115;-71
2022/11/21 08:32:57;;;;;;;33.75;12.13;;;8.30;99.90;;;;;;5105377;28;20011;-70
2022/11/21 08:35:27;;;;;;;27.45;10.75;;;8.30;99.90;;;;;;5084203;28;20387;-72
2022/11/21 08:38:00;;;;;;;30.70;9.38;;;8.30;99.90;;;;;;5088053;28;20160;-72
2022/11/21 08:40:27;;;;;;;25.45;9.18;;;8.30;99.90;;;;;;5100970;28;20406;-71
2022/11/21 08:43:00;;;;;;;24.30;9.85;;;8.30;99.90;;;;;;5104413;28;20132;-71
2022/11/21 08:45:25;;;;;;;26.88;9.48;;;8.20;99.90;;;;;;5098826;28;20091;-70
2022/11/21 08:47:52;;;;;;;19.52;8.88;;;8.20;99.90;;;;;;5097614;28;20487;-70
2022/11/21 08:50:18;;;;;;;23.92;9.00;;;8.20;99.90;;;;;;5106945;28;20566;-70
2022/11/21 08:52:43;;;;;;;18.40;8.05;;;8.30;99.90;;;;;;5107485;28;20103;-69
2022/11/21 08:55:09;;;;;;;20.70;8.15;;;8.20;99.90;;;;;;5102794;28;20103;-69
2022/11/21 08:57:38;;;;;;;18.17;7.50;;;8.10;99.90;;;;;;5096635;28;20016;-70
2022/11/21 09:00:05;;;;;;;18.08;6.68;;;8.00;99.90;;;;;;5106065;28;20492;-70
2022/11/21 09:02:31;;;;;;;23.98;6.93;;;8.10;99.90;;;;;;5106409;28;20020;-70
2022/11/21 09:04:57;;;;;;;21.35;7.25;;;8.10;99.90;;;;;;5105485;28;20038;-70
2022/11/21 09:07:22;;;;;;;11.90;6.50;;;8.10;99.90;;;;;;5106098;28;20030;-69
2022/11/21 09:09:48;;;;;;;16.70;6.15;;;8.20;99.90;;;;;;5102687;28;20497;-72
2022/11/21 09:12:14;;;;;;;18.00;5.75;;;8.20;99.90;;;;;;5101669;28;20400;-71
2022/11/21 09:20:08;;;;;;;13.13;5.40;;;8.30;99.90;;;;;;5101494;28;20055;-69
2022/11/21 09:22:33;;;;;;;16.77;5.63;;;8.40;99.90;;;;;;5088178;28;20066;-69
2022/11/21 09:24:59;;;;;;;13.48;4.95;;;8.40;99.90;;;;;;5103350;28;20058;-70
2022/11/21 09:27:25;;;;;;;18.52;4.68;;;8.40;99.90;;;;;;5103147;28;20025;-70
2022/11/21 09:29:50;;;;;;;15.48;5.50;;;8.40;99.90;;;;;;5102528;28;20437;-70
2022/11/21 09:32:16;;;;;;;12.48;5.43;;;8.40;99.90;;;;;;5111335;28;20035;-70
2022/11/21 09:34:41;;;;;;;11.43;4.45;;;8.50;99.90;;;;;;5107708;28;20016;-70
2022/11/21 09:37:07;;;;;;;18.85;4.32;;;8.60;99.90;;;;;;5107399;28;20031;-71
2022/11/21 09:39:33;;;;;;;11.40;4.13;;;8.60;99.90;;;;;;5109922;28;20035;-71
2022/11/21 09:42:39;;;;;;;10.85;3.65;;;8.70;99.90;;;;;;5111051;28;20020;-70
2022/11/21 09:45:07;;;;;;;13.93;4.63;;;8.70;99.90;;;;;;5061818;28;20034;-70
2022/11/21 09:47:42;;;;;;;11.85;5.00;;;8.70;99.90;;;;;;5109873;28;20036;-70
2022/11/21 09:50:13;;;;;;;16.73;4.20;;;8.70;99.90;;;;;;5110216;28;20046;-71
2022/11/21 09:52:39;;;;;;;13.63;4.78;;;8.70;99.90;;;;;;5109574;28;20008;-71
2022/11/21 09:55:45;;;;;;;11.40;4.53;;;8.90;99.90;;;;;;5087450;28;20043;-70
2022/11/21 09:58:49;;;;;;;15.63;4.60;;;8.90;99.90;;;;;;5091334;28;20028;-70
2022/11/21 10:01:16;;;;;;;20.40;4.72;;;8.90;99.90;;;;;;5008498;28;20108;-71
2022/11/21 10:03:49;;;;;;;13.95;3.88;;;9.00;99.90;;;;;;5008838;28;20030;-71
2022/11/21 10:06:44;;;;;;;14.68;5.05;;;9.00;99.90;;;;;;5015702;28;20043;-70
2022/11/21 10:09:31;;;;;;;12.88;3.78;;;9.00;99.90;;;;;;5097628;28;20016;-70
2022/11/21 10:15:22;;;;;;;11.07;3.97;;;9.10;99.90;;;;;;5097543;28;20399;-70
2022/11/21 10:17:47;;;;;;;16.38;4.75;;;9.20;99.90;;;;;;5098055;28;20059;-70
2022/11/21 10:20:13;;;;;;;16.13;4.93;;;9.20;99.90;;;;;;5097389;28;20040;-70
2022/11/21 10:23:03;;;;;;;18.73;4.07;;;9.20;99.90;;;;;;5079219;28;20028;-71
2022/11/21 10:25:39;;;;;;;12.90;3.70;;;9.30;99.90;;;;;;5079065;28;20036;-70
2022/11/21 10:28:14;;;;;;;13.50;3.35;;;9.10;99.90;;;;;;5096939;28;20443;-70
2022/11/21 10:30:42;;;;;;;14.07;3.90;;;9.20;99.90;;;;;;5096965;28;20035;-71
2022/11/21 10:33:17;;;;;;;13.15;3.90;;;9.30;99.90;;;;;;5080986;28;20020;-71
2022/11/21 10:35:51;;;;;;;13.20;3.78;;;9.40;99.90;;;;;;5095169;28;20177;-70
2022/11/21 10:38:20;;;;;;;12.40;3.83;;;9.30;99.90;;;;;;5096165;28;20020;-70
2022/11/21 10:41:11;;;;;;;10.68;3.58;;;9.40;99.90;;;;;;5095467;28;20039;-71
2022/11/21 10:47:00;;;;;;;10.73;3.33;;;9.40;99.90;;;;;;5031250;28;20026;-72
2022/11/21 10:49:32;;;;;;;10.27;3.67;;;9.50;99.90;;;;;;5099821;28;20039;-72
2022/11/21 10:52:14;;;;;;;9.48;3.17;;;9.50;99.90;;;;;;5097911;28;20117;-71
2022/11/21 10:55:02;;;;;;;10.20;3.63;;;9.60;99.90;;;;;;5098542;28;20031;-71
2022/11/21 10:57:32;;;;;;;8.07;2.75;;;9.50;99.90;;;;;;5083792;28;20046;-71
2022/11/21 11:00:14;;;;;;;17.25;4.25;;;9.40;99.90;;;;;;5095684;28;20122;-71
2022/11/21 11:03:06;;;;;;;23.27;3.73;;;9.50;99.90;;;;;;5096147;28;20039;-71
2022/11/21 11:05:57;;;;;;;13.82;2.90;;;9.60;99.90;;;;;;5096485;28;20027;-71
2022/11/21 11:08:23;;;;;;;14.48;3.90;;;9.60;99.90;;;;;;5098533;28;20024;-71
2022/11/21 11:11:06;;;;;;;13.50;3.88;;;9.60;99.90;;;;;;5096093;28;20034;-71
2022/11/21 11:13:58;;;;;;;12.85;3.53;;;9.50;99.90;;;;;;5096575;28;20025;-70
2022/11/21 11:16:26;;;;;;;10.27;3.13;;;9.60;99.90;;;;;;5094488;28;20034;-70
2022/11/21 11:19:13;;;;;;;16.42;4.18;;;9.60;99.90;;;;;;5078850;28;20032;-70
2022/11/21 11:21:45;;;;;;;11.30;3.22;;;9.50;99.90;;;;;;5095231;28;20044;-70
2022/11/21 11:24:11;;;;;;;7.95;2.35;;;9.40;99.90;;;;;;5095552;28;20032;-70
2022/11/21 11:26:45;;;;;;;8.80;2.85;;;9.50;99.90;;;;;;5093907;28;20027;-70
2022/11/21 11:29:18;;;;;;;9.48;2.50;;;9.50;99.90;;;;;;5097747;28;20023;-71
2022/11/21 11:31:55;;;;;;;9.05;2.60;;;9.50;99.90;;;;;;5094752;28;20534;-70
2022/11/21 11:34:21;;;;;;;9.93;2.20;;;9.40;99.90;;;;;;5075215;28;20027;-71
2022/11/21 11:37:09;;;;;;;9.75;2.45;;;9.50;99.90;;;;;;5096154;28;20027;-70
2022/11/21 11:40:20;;;;;;;10.10;2.97;;;9.60;99.90;;;;;;5094784;28;20123;-71
2022/11/21 11:48:30;;;;;;;11.45;2.63;;;9.60;99.90;;;;;;5097008;28;20053;-70
2022/11/21 11:51:01;;;;;;;6.07;1.70;;;9.50;99.90;;;;;;5093755;28;20032;-70
2022/11/21 11:53:33;;;;;;;11.30;3.53;;;9.50;99.90;;;;;;5095939;28;20020;-72
2022/11/21 11:56:05;;;;;;;8.63;2.45;;;9.60;99.90;;;;;;5095067;28;20483;-71
2022/11/21 11:58:47;;;;;;;7.47;1.60;;;9.50;99.90;;;;;;5095592;28;20114;-72
2022/11/21 12:01:38;;;;;;;7.00;2.00;;;9.50;99.90;;;;;;5095710;28;20036;-72
2022/11/21 12:04:14;;;;;;;10.23;2.50;;;9.40;99.90;;;;;;5097557;28;20055;-72
2022/11/21 12:07:07;;;;;;;10.88;2.40;;;9.40;99.90;;;;;;5093939;28;20019;-72
2022/11/21 12:09:42;;;;;;;;;;;9.50;99.90;;;;;;5084611;28;20044;-72
2022/11/21 12:12:34;;;;;;;9.63;2.70;;;9.60;99.90;;;;;;5099131;28;20008;-71
2022/11/21 12:18:02;;;;;;;7.82;2.53;;;9.40;99.90;;;;;;5094635;28;20065;-72
2022/11/21 12:20:52;;;;;;;4.32;2.08;;;9.50;99.90;;;;;;5095143;28;20067;-72
2022/11/21 12:23:19;;;;;;;7.57;2.63;;;9.50;99.90;;;;;;5095522;28;20028;-72
2022/11/21 12:26:11;;;;;;;4.65;2.80;;;9.50;99.90;;;;;;5078466;28;20024;-72
2022/11/21 12:28:48;;;;;;;9.20;2.95;;;9.50;99.90;;;;;;5086641;28;20036;-71
2022/11/21 12:31:24;;;;;;;8.93;2.10;;;9.60;99.90;;;;;;5096273;28;20054;-71
2022/11/21 12:34:20;;;;;;;9.05;2.88;;;9.50;99.90;;;;;;5098261;28;20111;-71
2022/11/21 12:37:18;;;;;;;8.68;2.88;;;9.60;99.90;;;;;;5091911;28;20112;-74
2022/11/21 12:39:52;;;;;;;9.63;2.58;;;9.80;99.90;;;;;;5094498;28;20028;-69
2022/11/21 12:42:48;;;;;;;11.00;2.83;;;9.80;99.90;;;;;;5098524;28;20036;-69
2022/11/21 12:45:41;;;;;;;7.40;3.00;;;9.70;99.90;;;;;;5094237;28;20024;-68
2022/11/21 12:54:30;;;;;;;7.85;2.95;;;9.80;99.90;;;;;;5096134;28;20027;-70
2022/11/21 12:57:15;;;;;;;9.98;3.55;;;9.80;99.90;;;;;;5093705;28;20031;-69
2022/11/21 13:00:02;;;;;;;10.48;3.00;;;9.80;99.90;;;;;;5094460;28;20017;-69
2022/11/21 13:02:40;;;;;;;9.50;2.72;;;9.70;99.90;;;;;;5102257;28;20099;-68
2022/11/21 13:05:11;;;;;;;7.35;2.55;;;9.60;99.90;;;;;;5090678;28;20019;-70
2022/11/21 13:07:38;;;;;;;8.43;2.65;;;9.70;99.90;;;;;;5098902;28;20034;-69
2022/11/21 13:10:12;;;;;;;14.40;3.70;;;9.60;99.90;;;;;;5099230;28;20015;-69
2022/11/21 13:12:47;;;;;;;6.82;3.42;;;9.70;99.90;;;;;;5101396;28;20031;-69
2022/11/21 13:15:25;;;;;;;7.68;3.50;;;9.70;99.90;;;;;;5100717;28;20027;-69
2022/11/21 13:18:14;;;;;;;10.32;5.07;;;9.70;99.90;;;;;;5099700;28;20153;-69
2022/11/21 13:20:49;;;;;;;10.10;3.70;;;9.70;99.90;;;;;;5097611;28;20040;-69
2022/11/21 13:23:35;;;;;;;9.70;3.60;;;9.70;99.90;;;;;;5101447;28;20063;-69
2022/11/21 13:26:01;;;;;;;13.60;4.65;;;9.70;99.90;;;;;;5100056;28;20046;-69
2022/11/21 13:28:32;;;;;;;14.57;4.03;;;9.70;99.90;;;;;;5099304;28;20506;-69